sensor_id;sensor_type;location;lat;lon;timestamp;P1;durP1;ratioP1;P2;durP2;ratioP2
22417;SDS011;11376;50.932;4.442;2022-10-18T00:01:11;5.65;;;3.13;;
22417;SDS011;11376;50.932;4.442;2022-10-18T00:03:37;5.55;;;3.00;;
22417;SDS011;11376;50.932;4.442;2022-10-18T00:06:03;7.82;;;3.00;;
22417;SDS011;11376;50.932;4.442;2022-10-18T00:08:29;5.32;;;2.90;;
22417;SDS011;11376;50.932;4.442;2022-10-18T00:10:55;5.55;;;2.75;;
22417;SDS011;11376;50.932;4.442;2022-10-18T00:13:21;6.10;;;3.08;;
22417;SDS011;11376;50.932;4.442;2022-10-18T00:15:51;8.05;;;3.00;;
22417;SDS011;11376;50.932;4.442;2022-10-18T00:18:18;5.63;;;2.85;;
22417;SDS011;11376;50.932;4.442;2022-10-18T00:20:44;4.75;;;2.55;;
22417;SDS011;11376;50.932;4.442;2022-10-18T00:23:10;6.60;;;2.95;;
22417;SDS011;11376;50.932;4.442;2022-10-18T00:25:35;3.45;;;2.55;;
22417;SDS011;11376;50.932;4.442;2022-10-18T00:28:01;6.70;;;2.70;;
22417;SDS011;11376;50.932;4.442;2022-10-18T00:30:26;5.88;;;2.63;;
22417;SDS011;11376;50.932;4.442;2022-10-18T00:32:52;4.90;;;2.83;;
22417;SDS011;11376;50.932;4.442;2022-10-18T00:35:18;5.65;;;2.70;;
22417;SDS011;11376;50.932;4.442;2022-10-18T00:37:43;6.28;;;3.00;;
22417;SDS011;11376;50.932;4.442;2022-10-18T00:40:09;6.05;;;2.75;;
22417;SDS011;11376;50.932;4.442;2022-10-18T00:42:35;5.72;;;2.63;;
22417;SDS011;11376;50.932;4.442;2022-10-18T00:45:21;8.50;;;3.28;;
22417;SDS011;11376;50.932;4.442;2022-10-18T00:47:49;6.40;;;2.85;;
22417;SDS011;11376;50.932;4.442;2022-10-18T00:50:20;6.30;;;3.05;;
22417;SDS011;11376;50.932;4.442;2022-10-18T00:52:54;5.97;;;3.03;;
22417;SDS011;11376;50.932;4.442;2022-10-18T00:55:22;4.70;;;2.80;;
22417;SDS011;11376;50.932;4.442;2022-10-18T00:57:49;5.97;;;3.20;;
22417;SDS011;11376;50.932;4.442;2022-10-18T01:00:15;6.90;;;2.67;;
22417;SDS011;11376;50.932;4.442;2022-10-18T01:02:42;6.72;;;3.15;;
22417;SDS011;11376;50.932;4.442;2022-10-18T01:05:09;7.30;;;3.17;;
22417;SDS011;11376;50.932;4.442;2022-10-18T01:07:40;5.20;;;3.03;;
22417;SDS011;11376;50.932;4.442;2022-10-18T01:13:05;4.80;;;2.72;;
22417;SDS011;11376;50.932;4.442;2022-10-18T01:16:00;4.40;;;2.67;;
22417;SDS011;11376;50.932;4.442;2022-10-18T01:21:22;6.50;;;3.28;;
22417;SDS011;11376;50.932;4.442;2022-10-18T01:30:03;5.50;;;3.40;;
22417;SDS011;11376;50.932;4.442;2022-10-18T01:32:43;6.07;;;3.08;;
22417;SDS011;11376;50.932;4.442;2022-10-18T01:35:13;6.45;;;3.10;;
22417;SDS011;11376;50.932;4.442;2022-10-18T01:37:42;5.63;;;3.10;;
22417;SDS011;11376;50.932;4.442;2022-10-18T01:40:11;6.68;;;3.08;;
22417;SDS011;11376;50.932;4.442;2022-10-18T01:42:40;6.63;;;3.30;;
22417;SDS011;11376;50.932;4.442;2022-10-18T01:45:09;5.60;;;3.30;;
22417;SDS011;11376;50.932;4.442;2022-10-18T01:47:36;6.35;;;3.72;;
22417;SDS011;11376;50.932;4.442;2022-10-18T01:50:03;5.78;;;3.20;;
22417;SDS011;11376;50.932;4.442;2022-10-18T01:52:30;6.03;;;2.90;;
22417;SDS011;11376;50.932;4.442;2022-10-18T01:54:56;5.43;;;3.28;;
22417;SDS011;11376;50.932;4.442;2022-10-18T02:00:28;6.93;;;3.20;;
22417;SDS011;11376;50.932;4.442;2022-10-18T02:03:08;5.80;;;3.03;;
22417;SDS011;11376;50.932;4.442;2022-10-18T02:05:53;5.25;;;3.13;;
22417;SDS011;11376;50.932;4.442;2022-10-18T02:13:33;5.97;;;2.97;;
22417;SDS011;11376;50.932;4.442;2022-10-18T02:16:27;7.05;;;2.88;;
22417;SDS011;11376;50.932;4.442;2022-10-18T02:19:01;6.10;;;3.28;;
22417;SDS011;11376;50.932;4.442;2022-10-18T02:21:28;8.73;;;3.25;;
22417;SDS011;11376;50.932;4.442;2022-10-18T02:23:54;8.10;;;3.13;;
22417;SDS011;11376;50.932;4.442;2022-10-18T02:26:23;7.07;;;3.08;;
22417;SDS011;11376;50.932;4.442;2022-10-18T02:28:49;5.57;;;3.38;;
22417;SDS011;11376;50.932;4.442;2022-10-18T02:31:19;4.82;;;2.95;;
22417;SDS011;11376;50.932;4.442;2022-10-18T02:36:26;6.10;;;3.25;;
22417;SDS011;11376;50.932;4.442;2022-10-18T02:39:06;7.85;;;3.70;;
22417;SDS011;11376;50.932;4.442;2022-10-18T02:41:40;5.80;;;2.92;;
22417;SDS011;11376;50.932;4.442;2022-10-18T02:44:07;6.05;;;3.45;;
22417;SDS011;11376;50.932;4.442;2022-10-18T02:46:33;6.50;;;3.47;;
22417;SDS011;11376;50.932;4.442;2022-10-18T02:48:59;6.05;;;3.22;;
22417;SDS011;11376;50.932;4.442;2022-10-18T02:51:25;12.57;;;4.68;;
22417;SDS011;11376;50.932;4.442;2022-10-18T02:53:50;8.50;;;4.38;;
22417;SDS011;11376;50.932;4.442;2022-10-18T02:56:16;8.07;;;4.10;;
22417;SDS011;11376;50.932;4.442;2022-10-18T02:58:41;10.02;;;5.30;;
22417;SDS011;11376;50.932;4.442;2022-10-18T03:01:07;7.70;;;4.68;;
22417;SDS011;11376;50.932;4.442;2022-10-18T03:03:32;9.82;;;5.28;;
22417;SDS011;11376;50.932;4.442;2022-10-18T03:05:58;7.72;;;4.57;;
22417;SDS011;11376;50.932;4.442;2022-10-18T03:08:24;11.10;;;6.15;;
22417;SDS011;11376;50.932;4.442;2022-10-18T03:10:50;10.23;;;5.75;;
22417;SDS011;11376;50.932;4.442;2022-10-18T03:13:15;10.60;;;6.30;;
22417;SDS011;11376;50.932;4.442;2022-10-18T03:15:41;9.30;;;5.95;;
22417;SDS011;11376;50.932;4.442;2022-10-18T03:18:06;14.10;;;6.15;;
22417;SDS011;11376;50.932;4.442;2022-10-18T03:20:32;11.07;;;5.60;;
22417;SDS011;11376;50.932;4.442;2022-10-18T03:22:58;10.32;;;5.80;;
22417;SDS011;11376;50.932;4.442;2022-10-18T03:25:24;11.50;;;6.32;;
22417;SDS011;11376;50.932;4.442;2022-10-18T03:27:49;9.43;;;5.78;;
22417;SDS011;11376;50.932;4.442;2022-10-18T03:30:15;9.82;;;5.72;;
22417;SDS011;11376;50.932;4.442;2022-10-18T03:32:40;9.43;;;5.53;;
22417;SDS011;11376;50.932;4.442;2022-10-18T03:35:06;10.68;;;6.03;;
22417;SDS011;11376;50.932;4.442;2022-10-18T03:37:33;10.98;;;5.93;;
22417;SDS011;11376;50.932;4.442;2022-10-18T03:39:59;12.23;;;7.20;;
22417;SDS011;11376;50.932;4.442;2022-10-18T03:42:25;15.85;;;8.40;;
22417;SDS011;11376;50.932;4.442;2022-10-18T03:44:51;14.90;;;7.95;;
22417;SDS011;11376;50.932;4.442;2022-10-18T03:47:16;13.88;;;7.18;;
22417;SDS011;11376;50.932;4.442;2022-10-18T03:49:42;15.13;;;7.35;;
22417;SDS011;11376;50.932;4.442;2022-10-18T03:52:08;17.58;;;7.50;;
22417;SDS011;11376;50.932;4.442;2022-10-18T03:54:33;15.90;;;7.93;;
22417;SDS011;11376;50.932;4.442;2022-10-18T03:56:59;13.98;;;7.20;;
22417;SDS011;11376;50.932;4.442;2022-10-18T03:59:24;13.82;;;7.18;;
22417;SDS011;11376;50.932;4.442;2022-10-18T04:01:50;11.38;;;7.05;;
22417;SDS011;11376;50.932;4.442;2022-10-18T04:04:15;15.82;;;8.50;;
22417;SDS011;11376;50.932;4.442;2022-10-18T04:06:42;15.75;;;8.38;;
22417;SDS011;11376;50.932;4.442;2022-10-18T04:09:08;14.93;;;7.60;;
22417;SDS011;11376;50.932;4.442;2022-10-18T04:11:34;14.85;;;7.55;;
22417;SDS011;11376;50.932;4.442;2022-10-18T04:13:59;13.52;;;7.10;;
22417;SDS011;11376;50.932;4.442;2022-10-18T04:16:25;14.05;;;7.38;;
22417;SDS011;11376;50.932;4.442;2022-10-18T04:18:51;14.27;;;8.15;;
22417;SDS011;11376;50.932;4.442;2022-10-18T04:21:16;18.05;;;9.25;;
22417;SDS011;11376;50.932;4.442;2022-10-18T04:23:42;13.88;;;8.90;;
22417;SDS011;11376;50.932;4.442;2022-10-18T04:26:07;13.73;;;7.97;;
22417;SDS011;11376;50.932;4.442;2022-10-18T04:28:33;13.55;;;7.45;;
22417;SDS011;11376;50.932;4.442;2022-10-18T04:30:59;14.75;;;7.88;;
22417;SDS011;11376;50.932;4.442;2022-10-18T04:33:25;15.23;;;8.60;;
22417;SDS011;11376;50.932;4.442;2022-10-18T04:35:51;13.70;;;7.70;;
22417;SDS011;11376;50.932;4.442;2022-10-18T04:38:17;14.85;;;8.27;;
22417;SDS011;11376;50.932;4.442;2022-10-18T04:40:43;12.32;;;7.05;;
22417;SDS011;11376;50.932;4.442;2022-10-18T04:43:09;13.98;;;7.07;;
22417;SDS011;11376;50.932;4.442;2022-10-18T04:45:35;14.35;;;7.13;;
22417;SDS011;11376;50.932;4.442;2022-10-18T04:48:00;11.95;;;7.28;;
22417;SDS011;11376;50.932;4.442;2022-10-18T04:50:26;11.73;;;6.22;;
22417;SDS011;11376;50.932;4.442;2022-10-18T04:52:51;15.40;;;6.95;;
22417;SDS011;11376;50.932;4.442;2022-10-18T04:55:17;11.48;;;6.82;;
22417;SDS011;11376;50.932;4.442;2022-10-18T04:57:43;13.25;;;6.43;;
22417;SDS011;11376;50.932;4.442;2022-10-18T05:00:09;13.02;;;6.55;;
22417;SDS011;11376;50.932;4.442;2022-10-18T05:02:35;10.18;;;5.75;;
22417;SDS011;11376;50.932;4.442;2022-10-18T05:05:00;11.23;;;6.75;;
22417;SDS011;11376;50.932;4.442;2022-10-18T05:07:26;12.77;;;6.80;;
22417;SDS011;11376;50.932;4.442;2022-10-18T05:09:51;14.45;;;7.30;;
22417;SDS011;11376;50.932;4.442;2022-10-18T05:12:17;13.18;;;7.47;;
22417;SDS011;11376;50.932;4.442;2022-10-18T05:14:43;13.63;;;7.68;;
22417;SDS011;11376;50.932;4.442;2022-10-18T05:17:08;15.63;;;6.93;;
22417;SDS011;11376;50.932;4.442;2022-10-18T05:19:34;14.63;;;6.93;;
22417;SDS011;11376;50.932;4.442;2022-10-18T05:21:59;12.35;;;6.75;;
22417;SDS011;11376;50.932;4.442;2022-10-18T05:24:25;11.32;;;6.47;;
22417;SDS011;11376;50.932;4.442;2022-10-18T05:26:51;11.82;;;6.90;;
22417;SDS011;11376;50.932;4.442;2022-10-18T05:29:16;11.05;;;6.10;;
22417;SDS011;11376;50.932;4.442;2022-10-18T05:31:42;9.52;;;6.05;;
22417;SDS011;11376;50.932;4.442;2022-10-18T05:34:07;11.82;;;6.10;;
22417;SDS011;11376;50.932;4.442;2022-10-18T05:36:33;15.65;;;7.22;;
22417;SDS011;11376;50.932;4.442;2022-10-18T05:38:58;12.75;;;6.80;;
22417;SDS011;11376;50.932;4.442;2022-10-18T05:41:26;15.32;;;7.30;;
22417;SDS011;11376;50.932;4.442;2022-10-18T05:43:52;11.82;;;6.97;;
22417;SDS011;11376;50.932;4.442;2022-10-18T05:46:17;14.18;;;7.30;;
22417;SDS011;11376;50.932;4.442;2022-10-18T05:48:43;12.65;;;7.20;;
22417;SDS011;11376;50.932;4.442;2022-10-18T05:51:13;12.77;;;7.03;;
22417;SDS011;11376;50.932;4.442;2022-10-18T05:53:38;16.30;;;7.40;;
22417;SDS011;11376;50.932;4.442;2022-10-18T05:56:04;10.98;;;6.40;;
22417;SDS011;11376;50.932;4.442;2022-10-18T05:58:30;13.07;;;7.32;;
22417;SDS011;11376;50.932;4.442;2022-10-18T06:00:57;14.88;;;6.55;;
22417;SDS011;11376;50.932;4.442;2022-10-18T06:03:23;14.00;;;7.57;;
22417;SDS011;11376;50.932;4.442;2022-10-18T06:05:51;14.50;;;6.78;;
22417;SDS011;11376;50.932;4.442;2022-10-18T06:08:17;14.10;;;7.07;;
22417;SDS011;11376;50.932;4.442;2022-10-18T06:10:42;12.82;;;7.60;;
22417;SDS011;11376;50.932;4.442;2022-10-18T06:13:08;12.20;;;7.40;;
22417;SDS011;11376;50.932;4.442;2022-10-18T06:15:33;16.35;;;7.63;;
22417;SDS011;11376;50.932;4.442;2022-10-18T06:17:59;13.75;;;7.13;;
22417;SDS011;11376;50.932;4.442;2022-10-18T06:20:24;15.38;;;7.72;;
22417;SDS011;11376;50.932;4.442;2022-10-18T06:22:51;16.83;;;7.10;;
22417;SDS011;11376;50.932;4.442;2022-10-18T06:25:17;13.18;;;8.10;;
22417;SDS011;11376;50.932;4.442;2022-10-18T06:27:43;11.60;;;7.53;;
22417;SDS011;11376;50.932;4.442;2022-10-18T06:30:08;13.80;;;7.85;;
22417;SDS011;11376;50.932;4.442;2022-10-18T06:32:34;16.00;;;8.40;;
22417;SDS011;11376;50.932;4.442;2022-10-18T06:35:00;12.38;;;7.43;;
22417;SDS011;11376;50.932;4.442;2022-10-18T06:37:27;14.85;;;8.30;;
22417;SDS011;11376;50.932;4.442;2022-10-18T06:39:54;16.05;;;7.97;;
22417;SDS011;11376;50.932;4.442;2022-10-18T06:42:19;15.05;;;7.97;;
22417;SDS011;11376;50.932;4.442;2022-10-18T06:44:45;15.98;;;8.55;;
22417;SDS011;11376;50.932;4.442;2022-10-18T06:47:11;17.10;;;7.82;;
22417;SDS011;11376;50.932;4.442;2022-10-18T06:49:37;15.10;;;8.10;;
22417;SDS011;11376;50.932;4.442;2022-10-18T06:52:03;19.05;;;9.20;;
22417;SDS011;11376;50.932;4.442;2022-10-18T06:54:28;15.68;;;7.72;;
22417;SDS011;11376;50.932;4.442;2022-10-18T06:56:55;17.95;;;8.02;;
22417;SDS011;11376;50.932;4.442;2022-10-18T06:59:21;13.48;;;7.80;;
22417;SDS011;11376;50.932;4.442;2022-10-18T07:01:47;14.57;;;7.93;;
22417;SDS011;11376;50.932;4.442;2022-10-18T07:04:13;14.73;;;7.68;;
22417;SDS011;11376;50.932;4.442;2022-10-18T07:06:38;17.08;;;8.32;;
22417;SDS011;11376;50.932;4.442;2022-10-18T07:09:04;14.82;;;8.25;;
22417;SDS011;11376;50.932;4.442;2022-10-18T07:11:29;14.82;;;7.60;;
22417;SDS011;11376;50.932;4.442;2022-10-18T07:13:57;17.58;;;8.27;;
22417;SDS011;11376;50.932;4.442;2022-10-18T07:16:28;11.98;;;6.90;;
22417;SDS011;11376;50.932;4.442;2022-10-18T07:18:55;14.57;;;7.10;;
22417;SDS011;11376;50.932;4.442;2022-10-18T07:21:21;12.65;;;7.22;;
22417;SDS011;11376;50.932;4.442;2022-10-18T07:23:49;12.63;;;6.40;;
22417;SDS011;11376;50.932;4.442;2022-10-18T07:28:42;15.35;;;7.25;;
22417;SDS011;11376;50.932;4.442;2022-10-18T07:31:09;13.18;;;6.93;;
22417;SDS011;11376;50.932;4.442;2022-10-18T07:33:35;13.93;;;7.18;;
22417;SDS011;11376;50.932;4.442;2022-10-18T07:36:04;17.98;;;6.85;;
22417;SDS011;11376;50.932;4.442;2022-10-18T07:38:32;18.52;;;7.82;;
22417;SDS011;11376;50.932;4.442;2022-10-18T07:40:59;20.63;;;7.93;;
22417;SDS011;11376;50.932;4.442;2022-10-18T07:43:26;16.08;;;8.07;;
22417;SDS011;11376;50.932;4.442;2022-10-18T07:45:52;15.13;;;7.93;;
22417;SDS011;11376;50.932;4.442;2022-10-18T07:48:19;16.27;;;8.20;;
22417;SDS011;11376;50.932;4.442;2022-10-18T07:50:44;15.18;;;7.03;;
22417;SDS011;11376;50.932;4.442;2022-10-18T07:53:10;15.48;;;7.13;;
22417;SDS011;11376;50.932;4.442;2022-10-18T07:55:36;12.07;;;6.40;;
22417;SDS011;11376;50.932;4.442;2022-10-18T07:58:01;19.05;;;7.88;;
22417;SDS011;11376;50.932;4.442;2022-10-18T08:00:27;14.10;;;6.93;;
22417;SDS011;11376;50.932;4.442;2022-10-18T08:02:56;16.50;;;7.65;;
22417;SDS011;11376;50.932;4.442;2022-10-18T08:05:23;11.75;;;6.15;;
22417;SDS011;11376;50.932;4.442;2022-10-18T08:07:50;18.33;;;5.45;;
22417;SDS011;11376;50.932;4.442;2022-10-18T08:10:16;14.02;;;4.68;;
22417;SDS011;11376;50.932;4.442;2022-10-18T08:12:41;15.02;;;3.88;;
22417;SDS011;11376;50.932;4.442;2022-10-18T08:15:07;16.15;;;4.28;;
22417;SDS011;11376;50.932;4.442;2022-10-18T08:17:33;14.93;;;4.00;;
22417;SDS011;11376;50.932;4.442;2022-10-18T08:19:58;10.77;;;3.75;;
22417;SDS011;11376;50.932;4.442;2022-10-18T08:22:24;17.58;;;5.38;;
22417;SDS011;11376;50.932;4.442;2022-10-18T08:24:49;13.68;;;4.30;;
22417;SDS011;11376;50.932;4.442;2022-10-18T08:27:15;15.75;;;4.88;;
22417;SDS011;11376;50.932;4.442;2022-10-18T08:29:41;13.15;;;4.43;;
22417;SDS011;11376;50.932;4.442;2022-10-18T08:32:06;14.32;;;4.82;;
22417;SDS011;11376;50.932;4.442;2022-10-18T08:34:33;14.43;;;4.57;;
22417;SDS011;11376;50.932;4.442;2022-10-18T08:36:59;15.98;;;4.40;;
22417;SDS011;11376;50.932;4.442;2022-10-18T08:39:24;16.27;;;4.40;;
22417;SDS011;11376;50.932;4.442;2022-10-18T08:42:04;18.23;;;4.43;;
22417;SDS011;11376;50.932;4.442;2022-10-18T08:44:41;17.67;;;4.68;;
22417;SDS011;11376;50.932;4.442;2022-10-18T08:47:55;16.40;;;5.07;;
22417;SDS011;11376;50.932;4.442;2022-10-18T08:50:01;15.90;;;5.10;;
22417;SDS011;11376;50.932;4.442;2022-10-18T08:55:38;16.55;;;6.68;;
22417;SDS011;11376;50.932;4.442;2022-10-18T08:58:25;16.25;;;6.20;;
22417;SDS011;11376;50.932;4.442;2022-10-18T09:06:25;13.43;;;5.25;;
22417;SDS011;11376;50.932;4.442;2022-10-18T09:14:19;12.23;;;5.10;;
22417;SDS011;11376;50.932;4.442;2022-10-18T09:19:41;12.70;;;4.72;;
22417;SDS011;11376;50.932;4.442;2022-10-18T09:22:19;13.35;;;4.50;;
22417;SDS011;11376;50.932;4.442;2022-10-18T09:25:08;15.57;;;4.57;;
22417;SDS011;11376;50.932;4.442;2022-10-18T09:33:26;11.40;;;3.88;;
22417;SDS011;11376;50.932;4.442;2022-10-18T09:36:19;13.85;;;3.30;;
22417;SDS011;11376;50.932;4.442;2022-10-18T09:38:49;10.77;;;2.45;;
22417;SDS011;11376;50.932;4.442;2022-10-18T09:46:39;11.38;;;2.10;;
22417;SDS011;11376;50.932;4.442;2022-10-18T09:49:14;10.75;;;2.70;;
22417;SDS011;11376;50.932;4.442;2022-10-18T09:51:47;13.85;;;2.40;;
22417;SDS011;11376;50.932;4.442;2022-10-18T09:59:41;10.63;;;2.08;;
22417;SDS011;11376;50.932;4.442;2022-10-18T10:02:11;11.02;;;1.95;;
22417;SDS011;11376;50.932;4.442;2022-10-18T10:04:39;9.30;;;2.50;;
22417;SDS011;11376;50.932;4.442;2022-10-18T10:07:06;10.68;;;2.20;;
22417;SDS011;11376;50.932;4.442;2022-10-18T10:09:47;8.77;;;1.77;;
22417;SDS011;11376;50.932;4.442;2022-10-18T10:12:42;12.23;;;2.08;;
22417;SDS011;11376;50.932;4.442;2022-10-18T10:17:56;12.35;;;2.28;;
22417;SDS011;11376;50.932;4.442;2022-10-18T10:20:34;9.02;;;1.95;;
22417;SDS011;11376;50.932;4.442;2022-10-18T10:23:22;8.60;;;2.00;;
22417;SDS011;11376;50.932;4.442;2022-10-18T10:25:55;8.80;;;1.77;;
22417;SDS011;11376;50.932;4.442;2022-10-18T10:28:33;10.10;;;2.00;;
22417;SDS011;11376;50.932;4.442;2022-10-18T10:33:42;6.78;;;1.77;;
22417;SDS011;11376;50.932;4.442;2022-10-18T10:36:18;10.25;;;2.00;;
22417;SDS011;11376;50.932;4.442;2022-10-18T10:38:45;6.68;;;1.55;;
22417;SDS011;11376;50.932;4.442;2022-10-18T10:41:27;9.93;;;2.22;;
22417;SDS011;11376;50.932;4.442;2022-10-18T10:43:53;9.52;;;2.10;;
22417;SDS011;11376;50.932;4.442;2022-10-18T10:46:19;9.25;;;1.88;;
22417;SDS011;11376;50.932;4.442;2022-10-18T10:48:51;10.55;;;2.17;;
22417;SDS011;11376;50.932;4.442;2022-10-18T10:51:28;7.65;;;1.80;;
22417;SDS011;11376;50.932;4.442;2022-10-18T10:56:36;8.50;;;2.20;;
22417;SDS011;11376;50.932;4.442;2022-10-18T10:59:16;8.07;;;1.80;;
22417;SDS011;11376;50.932;4.442;2022-10-18T11:01:44;7.30;;;1.80;;
22417;SDS011;11376;50.932;4.442;2022-10-18T11:04:29;8.93;;;2.00;;
22417;SDS011;11376;50.932;4.442;2022-10-18T11:09:29;11.68;;;1.92;;
22417;SDS011;11376;50.932;4.442;2022-10-18T11:12:11;8.68;;;1.67;;
22417;SDS011;11376;50.932;4.442;2022-10-18T11:14:52;5.65;;;1.90;;
22417;SDS011;11376;50.932;4.442;2022-10-18T11:17:27;7.40;;;1.58;;
22417;SDS011;11376;50.932;4.442;2022-10-18T11:20:02;7.95;;;1.70;;
22417;SDS011;11376;50.932;4.442;2022-10-18T11:22:35;9.07;;;1.58;;
22417;SDS011;11376;50.932;4.442;2022-10-18T11:25:08;7.50;;;1.98;;
22417;SDS011;11376;50.932;4.442;2022-10-18T11:27:56;8.68;;;1.98;;
22417;SDS011;11376;50.932;4.442;2022-10-18T11:30:34;10.43;;;1.70;;
22417;SDS011;11376;50.932;4.442;2022-10-18T11:36:00;6.10;;;1.70;;
22417;SDS011;11376;50.932;4.442;2022-10-18T11:38:44;7.55;;;1.65;;
22417;SDS011;11376;50.932;4.442;2022-10-18T12:06:14;6.05;;;1.50;;
22417;SDS011;11376;50.932;4.442;2022-10-18T12:11:18;6.85;;;1.85;;
22417;SDS011;11376;50.932;4.442;2022-10-18T12:16:22;4.65;;;1.15;;
22417;SDS011;11376;50.932;4.442;2022-10-18T12:19:00;5.72;;;1.23;;
22417;SDS011;11376;50.932;4.442;2022-10-18T12:21:29;7.05;;;1.40;;
22417;SDS011;11376;50.932;4.442;2022-10-18T12:26:52;5.22;;;1.35;;
22417;SDS011;11376;50.932;4.442;2022-10-18T12:32:08;5.35;;;1.30;;
22417;SDS011;11376;50.932;4.442;2022-10-18T12:34:41;7.22;;;1.60;;
22417;SDS011;11376;50.932;4.442;2022-10-18T12:40:05;7.22;;;1.75;;
22417;SDS011;11376;50.932;4.442;2022-10-18T12:42:41;7.47;;;1.33;;
22417;SDS011;11376;50.932;4.442;2022-10-18T12:47:37;5.47;;;1.55;;
22417;SDS011;11376;50.932;4.442;2022-10-18T12:50:05;4.90;;;1.50;;
22417;SDS011;11376;50.932;4.442;2022-10-18T12:52:46;7.60;;;1.73;;
22417;SDS011;11376;50.932;4.442;2022-10-18T12:55:29;5.97;;;1.67;;
22417;SDS011;11376;50.932;4.442;2022-10-18T13:13:51;5.47;;;1.60;;
22417;SDS011;11376;50.932;4.442;2022-10-18T13:22:57;7.55;;;1.70;;
22417;SDS011;11376;50.932;4.442;2022-10-18T13:29:21;7.78;;;1.40;;
22417;SDS011;11376;50.932;4.442;2022-10-18T13:31:59;5.65;;;1.40;;
22417;SDS011;11376;50.932;4.442;2022-10-18T13:34:47;9.25;;;1.90;;
22417;SDS011;11376;50.932;4.442;2022-10-18T13:39:39;6.82;;;1.20;;
22417;SDS011;11376;50.932;4.442;2022-10-18T13:44:40;7.13;;;1.42;;
22417;SDS011;11376;50.932;4.442;2022-10-18T13:47:14;5.70;;;1.30;;
22417;SDS011;11376;50.932;4.442;2022-10-18T14:01:00;10.10;;;1.77;;
22417;SDS011;11376;50.932;4.442;2022-10-18T14:09:06;6.40;;;1.48;;
22417;SDS011;11376;50.932;4.442;2022-10-18T14:11:41;6.90;;;1.55;;
22417;SDS011;11376;50.932;4.442;2022-10-18T14:17:23;7.03;;;1.65;;
22417;SDS011;11376;50.932;4.442;2022-10-18T14:22:52;5.18;;;1.30;;
22417;SDS011;11376;50.932;4.442;2022-10-18T14:25:39;6.88;;;1.73;;
22417;SDS011;11376;50.932;4.442;2022-10-18T14:28:18;4.40;;;1.30;;
22417;SDS011;11376;50.932;4.442;2022-10-18T14:33:29;5.22;;;1.23;;
22417;SDS011;11376;50.932;4.442;2022-10-18T14:36:01;7.53;;;1.50;;
22417;SDS011;11376;50.932;4.442;2022-10-18T14:41:20;5.97;;;1.13;;
22417;SDS011;11376;50.932;4.442;2022-10-18T14:44:16;6.95;;;1.50;;
22417;SDS011;11376;50.932;4.442;2022-10-18T14:46:50;7.30;;;1.38;;
22417;SDS011;11376;50.932;4.442;2022-10-18T14:49:17;6.65;;;1.40;;
22417;SDS011;11376;50.932;4.442;2022-10-18T14:51:44;5.18;;;1.40;;
22417;SDS011;11376;50.932;4.442;2022-10-18T14:54:16;6.00;;;1.30;;
22417;SDS011;11376;50.932;4.442;2022-10-18T14:56:52;6.57;;;1.42;;
22417;SDS011;11376;50.932;4.442;2022-10-18T14:59:22;7.78;;;1.42;;
22417;SDS011;11376;50.932;4.442;2022-10-18T15:01:55;7.13;;;1.30;;
22417;SDS011;11376;50.932;4.442;2022-10-18T15:04:25;9.98;;;1.67;;
22417;SDS011;11376;50.932;4.442;2022-10-18T15:06:58;6.10;;;1.50;;
22417;SDS011;11376;50.932;4.442;2022-10-18T15:09:28;7.97;;;1.38;;
22417;SDS011;11376;50.932;4.442;2022-10-18T15:11:55;6.50;;;1.20;;
22417;SDS011;11376;50.932;4.442;2022-10-18T15:14:22;13.32;;;1.70;;
22417;SDS011;11376;50.932;4.442;2022-10-18T15:16:50;7.90;;;1.50;;
22417;SDS011;11376;50.932;4.442;2022-10-18T15:19:26;9.10;;;1.35;;
22417;SDS011;11376;50.932;4.442;2022-10-18T15:21:53;6.03;;;1.27;;
22417;SDS011;11376;50.932;4.442;2022-10-18T15:24:31;9.77;;;1.40;;
22417;SDS011;11376;50.932;4.442;2022-10-18T15:27:07;6.40;;;1.25;;
22417;SDS011;11376;50.932;4.442;2022-10-18T15:29:55;7.05;;;1.20;;
22417;SDS011;11376;50.932;4.442;2022-10-18T15:32:26;10.82;;;1.60;;
22417;SDS011;11376;50.932;4.442;2022-10-18T15:34:53;10.18;;;1.30;;
22417;SDS011;11376;50.932;4.442;2022-10-18T15:37:28;11.60;;;1.20;;
22417;SDS011;11376;50.932;4.442;2022-10-18T15:42:46;9.13;;;1.25;;
22417;SDS011;11376;50.932;4.442;2022-10-18T15:47:58;5.97;;;1.17;;
22417;SDS011;11376;50.932;4.442;2022-10-18T15:58:48;4.68;;;1.10;;
22417;SDS011;11376;50.932;4.442;2022-10-18T16:01:16;5.38;;;1.13;;
22417;SDS011;11376;50.932;4.442;2022-10-18T16:03:46;5.43;;;1.23;;
22417;SDS011;11376;50.932;4.442;2022-10-18T16:06:14;12.35;;;1.63;;
22417;SDS011;11376;50.932;4.442;2022-10-18T16:08:42;7.38;;;1.42;;
22417;SDS011;11376;50.932;4.442;2022-10-18T16:11:13;8.25;;;1.48;;
22417;SDS011;11376;50.932;4.442;2022-10-18T16:13:41;12.38;;;1.63;;
22417;SDS011;11376;50.932;4.442;2022-10-18T16:16:10;7.97;;;1.30;;
22417;SDS011;11376;50.932;4.442;2022-10-18T16:18:37;7.10;;;1.23;;
22417;SDS011;11376;50.932;4.442;2022-10-18T16:21:03;8.75;;;1.02;;
22417;SDS011;11376;50.932;4.442;2022-10-18T16:23:29;10.48;;;1.48;;
22417;SDS011;11376;50.932;4.442;2022-10-18T16:25:54;7.35;;;1.30;;
22417;SDS011;11376;50.932;4.442;2022-10-18T16:28:21;6.40;;;1.27;;
22417;SDS011;11376;50.932;4.442;2022-10-18T16:30:58;9.10;;;1.35;;
22417;SDS011;11376;50.932;4.442;2022-10-18T16:33:25;10.10;;;1.20;;
22417;SDS011;11376;50.932;4.442;2022-10-18T16:35:51;6.32;;;1.05;;
22417;SDS011;11376;50.932;4.442;2022-10-18T16:38:27;6.40;;;1.38;;
22417;SDS011;11376;50.932;4.442;2022-10-18T16:40:54;6.03;;;1.30;;
22417;SDS011;11376;50.932;4.442;2022-10-18T16:43:20;4.13;;;1.08;;
22417;SDS011;11376;50.932;4.442;2022-10-18T16:45:46;7.43;;;1.17;;
22417;SDS011;11376;50.932;4.442;2022-10-18T16:48:16;8.82;;;1.27;;
22417;SDS011;11376;50.932;4.442;2022-10-18T16:50:43;11.57;;;1.77;;
22417;SDS011;11376;50.932;4.442;2022-10-18T16:53:10;9.40;;;1.77;;
22417;SDS011;11376;50.932;4.442;2022-10-18T16:55:36;8.23;;;1.50;;
22417;SDS011;11376;50.932;4.442;2022-10-18T16:58:03;10.20;;;1.50;;
22417;SDS011;11376;50.932;4.442;2022-10-18T17:00:30;7.68;;;1.50;;
22417;SDS011;11376;50.932;4.442;2022-10-18T17:02:55;6.47;;;1.17;;
22417;SDS011;11376;50.932;4.442;2022-10-18T17:05:21;4.85;;;1.23;;
22417;SDS011;11376;50.932;4.442;2022-10-18T17:07:47;9.20;;;1.27;;
22417;SDS011;11376;50.932;4.442;2022-10-18T17:10:14;8.20;;;1.35;;
22417;SDS011;11376;50.932;4.442;2022-10-18T17:12:43;5.57;;;1.30;;
22417;SDS011;11376;50.932;4.442;2022-10-18T17:15:08;8.80;;;1.40;;
22417;SDS011;11376;50.932;4.442;2022-10-18T17:17:35;6.97;;;1.35;;
22417;SDS011;11376;50.932;4.442;2022-10-18T17:20:02;8.10;;;1.42;;
22417;SDS011;11376;50.932;4.442;2022-10-18T17:22:29;5.53;;;1.23;;
22417;SDS011;11376;50.932;4.442;2022-10-18T17:24:55;13.10;;;1.67;;
22417;SDS011;11376;50.932;4.442;2022-10-18T17:27:21;12.05;;;1.52;;
22417;SDS011;11376;50.932;4.442;2022-10-18T17:29:46;8.30;;;1.77;;
22417;SDS011;11376;50.932;4.442;2022-10-18T17:32:12;7.20;;;1.75;;
22417;SDS011;11376;50.932;4.442;2022-10-18T17:34:37;10.63;;;1.27;;
22417;SDS011;11376;50.932;4.442;2022-10-18T17:37:03;8.50;;;1.40;;
22417;SDS011;11376;50.932;4.442;2022-10-18T17:39:29;4.38;;;1.25;;
22417;SDS011;11376;50.932;4.442;2022-10-18T17:41:55;8.93;;;1.70;;
22417;SDS011;11376;50.932;4.442;2022-10-18T17:44:21;8.93;;;1.30;;
22417;SDS011;11376;50.932;4.442;2022-10-18T17:46:47;6.88;;;1.35;;
22417;SDS011;11376;50.932;4.442;2022-10-18T17:49:13;8.63;;;1.90;;
22417;SDS011;11376;50.932;4.442;2022-10-18T17:51:40;8.48;;;1.40;;
22417;SDS011;11376;50.932;4.442;2022-10-18T17:54:07;9.07;;;1.60;;
22417;SDS011;11376;50.932;4.442;2022-10-18T17:56:33;7.22;;;1.30;;
22417;SDS011;11376;50.932;4.442;2022-10-18T17:58:59;8.18;;;1.73;;